Airfield :
LOGIN :

Register | Disclaimer

   EN    FR    IT 

 










Legend :    VFR   Marginal VFR   IFR   Intensive IFR   Very Intensive IFR
Visi :
Ceiling :
>= 8 km
>= 3000ft
5 to 8 km
1000 to 3000 ft
1500m to 5 km
500 to 1000 ft
800 to 1500m
200 to 500 ft
< 800m
< 200 ft
Symbols :   Thunderstorms  Fog  Heavy snow  Heavy precipitations  Wind > 20 kt
SIGMETs :     Misc.  Thunderstorms  Icing  Turbulence  Mountain Waves  Volcanic Ashes






- Airport Elevation : 46 ft
- IATA code : SNN


EINN - Shannon

CURRENT METAR :
  • 271100Z 32008KT 4000 -RADZ BKN003 BKN006 13/12 Q1007 TEMPO 2000

EXPIRED METARs :
  • 271030Z 31007KT 280V340 5000 -RADZ FEW002 BKN006 BKN008 13/12 Q1007 TEMPO 2000
  • 271000Z 31007KT 4000 -RADZ FEW004 BKN006 OVC008 12/12 Q1008 TEMPO 2000
  • 270930Z 31006KT 6000 -RADZ FEW006 BKN009 OVC012 12/11 Q1008 TEMPO 4000 BKN008
  • 270900Z 30006KT 8000 -RADZ FEW009 BKN018 BKN022 12/11 Q1008 TEMPO 4000 BKN008
  • 270830Z 31009KT 7000 -RADZ FEW009 BKN012 BKN020 12/10 Q1008 TEMPO 4000 BKN008

TAF TAF EINN
Valid from the 27 at 06:00 until the 28 at 06:00 UTC


270500Z 2706/2806 31012KT 9999 FEW020 BKN030
TEMPO 2706/2709 30020G30KT 4500 -RADZ BKN014
BECMG 2709/2711 4000 -RA BKN009
PROB40
TEMPO 2711/2716 1500 RADZ BKN004
BECMG 2718/2720 9999 NSW BKN020
TEMPO 2720/2802 4500 -RA



MET'MAP, your aeronautical weather chart ! - Copyright ORBIFLY December 2007 - Disclaimer

ORBIFLY MET'MAP TEAM :

Programming & Development : Alexandra Zaïnal
Original concept : Baudouin d'Aumeries
Technical & hardware support : Manuel Goepfert
Assistance : Marc-Olivier Méhu




SOURCES & CREDITS :

   NOAA